createdAt,value
2018-03-24T00:01:38.427Z,98080.83
2018-03-24T00:04:04.930Z,98070.77
2018-03-24T00:06:31.312Z,98077.77
2018-03-24T00:08:57.668Z,98076.60
2018-03-24T00:11:24.001Z,98090.39
2018-03-24T00:13:50.381Z,98091.01
2018-03-24T00:16:17.001Z,98094.42
2018-03-24T00:18:43.395Z,98098.52
2018-03-24T00:21:09.801Z,98103.21
2018-03-24T00:23:36.166Z,98109.50
2018-03-24T00:26:02.618Z,98110.21
2018-03-24T00:28:29.013Z,98122.45
2018-03-24T00:30:55.422Z,98120.14
2018-03-24T00:33:21.873Z,98114.94
2018-03-24T00:35:48.282Z,98117.05
2018-03-24T00:38:14.711Z,98111.09
2018-03-24T00:40:41.166Z,98120.23
2018-03-24T00:43:07.514Z,98110.43
2018-03-24T00:45:33.877Z,98111.70
2018-03-24T00:48:00.346Z,98108.53
2018-03-24T00:50:26.702Z,98109.66
2018-03-24T00:52:53.067Z,98099.92
2018-03-24T00:55:19.440Z,98093.30
2018-03-24T00:57:45.772Z,98096.89
2018-03-24T01:00:12.190Z,98097.42
2018-03-24T01:02:38.518Z,98096.14
2018-03-24T01:05:04.897Z,98106.19
2018-03-24T01:07:31.225Z,98102.38
2018-03-24T01:09:57.581Z,98119.99
2018-03-24T01:12:23.946Z,98119.61
2018-03-24T01:14:50.291Z,98127.03
2018-03-24T01:17:16.624Z,98117.36
2018-03-24T01:19:42.974Z,98123.61
2018-03-24T01:22:09.326Z,98123.27
2018-03-24T01:24:35.740Z,98118.47
2018-03-24T01:27:02.106Z,98121.48
2018-03-24T01:29:28.465Z,98117.31
2018-03-24T01:31:54.865Z,98120.19
2018-03-24T01:34:21.218Z,98124.57
2018-03-24T01:36:47.589Z,98131.16
2018-03-24T01:39:13.985Z,98125.22
2018-03-24T01:41:40.339Z,98129.70
2018-03-24T01:44:06.711Z,98128.31
2018-03-24T01:46:33.176Z,98127.52
2018-03-24T01:48:59.545Z,98129.21
2018-03-24T01:51:25.889Z,98133.34
2018-03-24T01:53:52.309Z,98139.59
2018-03-24T01:56:18.689Z,98141.82
2018-03-24T01:58:45.037Z,98150.47
2018-03-24T02:01:11.405Z,98153.62
2018-03-24T02:03:37.810Z,98157.72
2018-03-24T02:06:04.206Z,98155.36
2018-03-24T02:08:30.554Z,98156.33
2018-03-24T02:10:56.990Z,98171.36
2018-03-24T02:13:23.499Z,98167.15
2018-03-24T02:15:49.853Z,98168.02
2018-03-24T02:18:16.245Z,98171.05
2018-03-24T02:20:42.697Z,98171.48
2018-03-24T02:23:09.042Z,98174.58
2018-03-24T02:25:35.457Z,98167.16
2018-03-24T02:28:01.794Z,98164.20
2018-03-24T02:30:28.217Z,98174.89
2018-03-24T02:32:54.561Z,98178.53
2018-03-24T02:35:20.945Z,98180.57
2018-03-24T02:37:47.280Z,98184.77
2018-03-24T02:40:13.691Z,98194.41
2018-03-24T02:42:40.030Z,98193.11
2018-03-24T02:45:06.414Z,98195.90
2018-03-24T02:47:32.758Z,98203.79
2018-03-24T02:49:59.123Z,98202.17
2018-03-24T02:52:25.478Z,98206.11
2018-03-24T02:54:51.842Z,98206.91
2018-03-24T02:57:18.187Z,98201.91
2018-03-24T02:59:44.538Z,98199.91
2018-03-24T03:02:10.950Z,98204.41
2018-03-24T03:04:37.416Z,98209.52
2018-03-24T03:07:03.770Z,98215.14
2018-03-24T03:09:30.093Z,98215.02
2018-03-24T03:11:56.445Z,98219.34
2018-03-24T03:14:22.779Z,98231.29
2018-03-24T03:16:49.197Z,98229.53
2018-03-24T03:19:15.597Z,98240.49
2018-03-24T03:21:53.141Z,98241.40
2018-03-24T03:24:19.544Z,98238.73
2018-03-24T03:26:46.039Z,98253.61
2018-03-24T03:29:12.508Z,98254.44
2018-03-24T03:31:38.903Z,98257.59
2018-03-24T03:34:05.289Z,98250.70
2018-03-24T03:36:31.669Z,98258.89
2018-03-24T03:38:58.017Z,98257.94
2018-03-24T03:41:24.353Z,98262.40
2018-03-24T03:43:50.713Z,98266.81
2018-03-24T03:46:17.077Z,98266.48
2018-03-24T03:48:43.446Z,98276.37
2018-03-24T03:51:09.834Z,98273.54
2018-03-24T03:53:36.426Z,98281.74
2018-03-24T03:56:02.825Z,98276.03
2018-03-24T03:58:29.226Z,98278.31
2018-03-24T04:00:55.591Z,98277.51
2018-03-24T04:03:22.000Z,98278.09
2018-03-24T04:05:48.354Z,98285.78
2018-03-24T04:08:15.045Z,98295.62
2018-03-24T04:10:41.378Z,98298.53
2018-03-24T04:13:07.743Z,98301.96
2018-03-24T04:15:34.238Z,98307.05
2018-03-24T04:18:00.605Z,98309.41
2018-03-24T04:20:26.959Z,98304.30
2018-03-24T04:22:53.330Z,98304.77
2018-03-24T04:25:19.647Z,98307.53
2018-03-24T04:27:46.024Z,98313.39
2018-03-24T04:30:12.401Z,98311.16
2018-03-24T04:32:38.787Z,98320.41
2018-03-24T04:35:05.346Z,98331.23
2018-03-24T04:37:31.846Z,98339.87
2018-03-24T04:39:58.201Z,98335.70
2018-03-24T04:42:24.589Z,98339.22
2018-03-24T04:44:50.953Z,98341.42
2018-03-24T04:47:17.311Z,98336.81
2018-03-24T04:49:43.742Z,98338.70
2018-03-24T04:52:10.107Z,98333.95
2018-03-24T04:54:36.473Z,98343.51
2018-03-24T04:57:02.902Z,98350.55
2018-03-24T04:59:29.276Z,98355.31
2018-03-24T05:01:55.634Z,98354.05
2018-03-24T05:04:22.001Z,98358.09
2018-03-24T05:06:48.393Z,98367.36
2018-03-24T05:09:14.736Z,98371.88
2018-03-24T05:11:41.078Z,98375.88
2018-03-24T05:14:07.475Z,98373.88
2018-03-24T05:16:33.795Z,98379.72
2018-03-24T05:19:00.154Z,98383.47
2018-03-24T05:21:26.498Z,98390.92
2018-03-24T05:23:52.830Z,98390.88
2018-03-24T05:26:19.295Z,98393.81
2018-03-24T05:28:45.570Z,98402.42
2018-03-24T05:31:11.934Z,98396.12
2018-03-24T05:33:38.289Z,98401.73
2018-03-24T05:36:04.658Z,98409.34
2018-03-24T05:38:31.014Z,98411.64
2018-03-24T05:40:57.344Z,98411.60
2018-03-24T05:43:23.718Z,98421.80
2018-03-24T05:45:50.401Z,98426.02
2018-03-24T05:48:17.735Z,98421.78
2018-03-24T05:50:44.113Z,98430.48
2018-03-24T05:53:10.495Z,98428.20
2018-03-24T05:55:36.850Z,98438.69
2018-03-24T05:58:03.234Z,98440.05
2018-03-24T06:00:29.669Z,98443.31
2018-03-24T06:02:56.011Z,98448.07
2018-03-24T06:05:22.353Z,98453.02
2018-03-24T06:07:48.713Z,98465.81
2018-03-24T06:10:15.093Z,98457.64
2018-03-24T06:12:41.434Z,98465.31
2018-03-24T06:15:07.759Z,98473.92
2018-03-24T06:17:34.237Z,98476.42
2018-03-24T06:20:00.688Z,98490.70
2018-03-24T06:22:27.024Z,98489.57
2018-03-24T06:24:53.365Z,98501.13
2018-03-24T06:27:19.730Z,98493.44
2018-03-24T06:29:46.125Z,98498.05
2018-03-24T06:32:12.550Z,98497.19
2018-03-24T06:34:39.037Z,98501.09
2018-03-24T06:37:10.430Z,98505.39
2018-03-24T06:39:36.790Z,98502.73
2018-03-24T06:42:03.174Z,98505.16
2018-03-24T06:44:29.549Z,98508.51
2018-03-24T06:46:55.910Z,98507.08
2018-03-24T06:49:22.315Z,98513.39
2018-03-24T06:51:48.661Z,98510.11
2018-03-24T06:54:15.010Z,98521.44
2018-03-24T06:56:41.390Z,98520.51
2018-03-24T06:59:07.761Z,98530.14
2018-03-24T07:01:34.129Z,98525.61
2018-03-24T07:04:03.854Z,98532.54
2018-03-24T07:06:30.438Z,98536.27
2018-03-24T07:08:56.820Z,98537.89
2018-03-24T07:11:23.198Z,98535.34
2018-03-24T07:13:49.994Z,98546.52
2018-03-24T07:16:16.483Z,98545.78
2018-03-24T07:18:42.858Z,98543.13
2018-03-24T07:21:09.242Z,98546.71
2018-03-24T07:23:35.613Z,98544.82
2018-03-24T07:26:02.158Z,98551.76
2018-03-24T07:28:28.610Z,98549.70
2018-03-24T07:30:55.013Z,98558.47
2018-03-24T07:33:21.356Z,98553.63
2018-03-24T07:35:47.718Z,98550.83
2018-03-24T07:38:14.189Z,98553.65
2018-03-24T07:40:40.589Z,98556.28
2018-03-24T07:43:06.970Z,98570.58
2018-03-24T07:45:33.355Z,98579.53
2018-03-24T07:47:59.848Z,98581.88
2018-03-24T07:50:26.263Z,98577.96
2018-03-24T07:52:52.969Z,98582.81
2018-03-24T07:55:21.692Z,98590.24
2018-03-24T07:57:52.354Z,98599.16
2018-03-24T08:00:20.619Z,98599.55
2018-03-24T08:02:46.989Z,98603.92
2018-03-24T08:05:13.460Z,98606.00
2018-03-24T08:07:39.898Z,98610.48
2018-03-24T08:10:06.298Z,98604.39
2018-03-24T08:12:32.682Z,98611.13
2018-03-24T08:14:59.132Z,98612.95
2018-03-24T08:17:25.503Z,98615.13
2018-03-24T08:19:51.849Z,98618.09
2018-03-24T08:22:18.210Z,98620.55
2018-03-24T08:24:44.570Z,98624.69
2018-03-24T08:27:10.926Z,98628.39
2018-03-24T08:29:37.254Z,98632.27
2018-03-24T08:32:03.761Z,98637.78
2018-03-24T08:34:30.226Z,98637.96
2018-03-24T08:36:56.567Z,98640.84
2018-03-24T08:39:22.978Z,98636.78
2018-03-24T08:41:49.322Z,98641.84
2018-03-24T08:44:15.672Z,98642.31
2018-03-24T08:46:42.022Z,98644.27
2018-03-24T08:49:08.353Z,98648.77
2018-03-24T08:51:34.689Z,98650.02
2018-03-24T08:54:01.045Z,98651.61
2018-03-24T08:56:27.397Z,98648.39
2018-03-24T08:58:53.825Z,98654.94
2018-03-24T09:01:20.238Z,98656.06
2018-03-24T09:03:46.654Z,98657.11
2018-03-24T09:06:13.009Z,98663.84
2018-03-24T09:08:39.409Z,98665.30
2018-03-24T09:11:05.746Z,98660.89
2018-03-24T09:13:32.121Z,98672.89
2018-03-24T09:15:58.453Z,98670.81
2018-03-24T09:18:24.794Z,98673.23
2018-03-24T09:20:51.175Z,98676.84
2018-03-24T09:23:17.571Z,98675.19
2018-03-24T09:25:43.914Z,98679.00
2018-03-24T09:28:10.302Z,98670.19
2018-03-24T09:30:36.740Z,98674.63
2018-03-24T09:33:03.098Z,98681.69
2018-03-24T09:35:29.474Z,98682.63
2018-03-24T09:37:55.819Z,98684.44
2018-03-24T09:40:22.158Z,98687.80
2018-03-24T09:42:48.514Z,98691.84
2018-03-24T09:45:14.907Z,98696.61
2018-03-24T09:47:41.242Z,98692.18
2018-03-24T09:50:07.633Z,98705.92
2018-03-24T09:52:33.982Z,98704.10
2018-03-24T09:55:00.335Z,98704.83
2018-03-24T09:57:26.703Z,98708.72
2018-03-24T09:59:53.108Z,98708.11
2018-03-24T10:02:19.490Z,98704.70
2018-03-24T10:04:45.872Z,98719.06
2018-03-24T10:07:12.298Z,98714.82
2018-03-24T10:09:38.638Z,98725.36
2018-03-24T10:12:05.146Z,98717.95
2018-03-24T10:14:31.558Z,98719.30
2018-03-24T10:16:57.918Z,98716.22
2018-03-24T10:19:24.306Z,98726.40
2018-03-24T10:35:10.189Z,98722.54
2018-03-24T10:37:42.486Z,98721.66
2018-03-24T10:40:08.842Z,98726.48
2018-03-24T10:42:35.254Z,98731.89
2018-03-24T10:45:01.598Z,98736.71
2018-03-24T10:47:27.941Z,98735.91
2018-03-24T10:49:54.341Z,98731.13
2018-03-24T10:52:20.841Z,98735.84
2018-03-24T10:54:47.234Z,98735.63
2018-03-24T10:57:13.667Z,98732.80
2018-03-24T10:59:40.077Z,98729.39
2018-03-24T11:02:06.510Z,98724.80
2018-03-24T11:04:32.907Z,98725.08
2018-03-24T11:06:59.254Z,98738.86
2018-03-24T11:09:25.635Z,98738.13
2018-03-24T11:11:52.049Z,98733.95
2018-03-24T11:14:18.398Z,98733.75
2018-03-24T11:16:44.768Z,98737.00
2018-03-24T11:19:11.182Z,98736.88
2018-03-24T11:21:37.514Z,98737.25
2018-03-24T11:24:03.902Z,98733.97
2018-03-24T11:26:30.316Z,98738.22
2018-03-24T11:28:56.865Z,98740.03
2018-03-24T11:31:23.234Z,98741.80
2018-03-24T11:33:49.654Z,98735.13
2018-03-24T11:36:15.985Z,98738.48
2018-03-24T11:38:42.326Z,98738.38
2018-03-24T11:41:08.725Z,98737.60
2018-03-24T11:43:35.058Z,98745.62
2018-03-24T11:46:01.429Z,98741.57
2018-03-24T11:48:27.798Z,98738.72
2018-03-24T11:50:54.148Z,98740.89
2018-03-24T11:53:20.653Z,98741.66
2018-03-24T11:55:46.938Z,98743.73
2018-03-24T11:58:13.326Z,98749.67
2018-03-24T12:00:39.726Z,98759.02
2018-03-24T12:03:06.061Z,98757.56
2018-03-24T12:05:32.402Z,98766.37
2018-03-24T12:07:58.778Z,98765.55
2018-03-24T12:10:25.134Z,98764.75
2018-03-24T12:12:51.481Z,98759.12
2018-03-24T12:15:17.872Z,98762.47
2018-03-24T12:17:44.325Z,98760.64
2018-03-24T12:20:10.645Z,98759.31
2018-03-24T12:22:37.030Z,98756.33
2018-03-24T12:25:03.430Z,98761.50
2018-03-24T12:27:29.786Z,98758.47
2018-03-24T12:29:56.186Z,98761.92
2018-03-24T12:32:22.557Z,98767.34
2018-03-24T12:34:48.950Z,98775.73
2018-03-24T12:37:15.334Z,98772.23
2018-03-24T12:39:41.701Z,98775.33
2018-03-24T12:42:08.084Z,98778.89
2018-03-24T12:44:34.510Z,98775.17
2018-03-24T12:47:00.863Z,98778.12
2018-03-24T12:49:27.299Z,98775.30
2018-03-24T12:51:53.757Z,98771.05
2018-03-24T12:54:20.129Z,98770.66
2018-03-24T12:56:46.501Z,98778.20
2018-03-24T12:59:12.933Z,98783.75
2018-03-24T13:01:39.308Z,98792.38
2018-03-24T13:04:05.671Z,98788.56
2018-03-24T13:06:32.079Z,98794.51
2018-03-24T13:08:58.442Z,98797.22
2018-03-24T13:11:24.799Z,98789.95
2018-03-24T13:13:51.186Z,98786.14
2018-03-24T13:16:17.586Z,98790.61
2018-03-24T13:18:43.984Z,98797.35
2018-03-24T13:21:10.373Z,98795.23
2018-03-24T13:23:36.697Z,98795.20
2018-03-24T13:26:03.080Z,98800.42
2018-03-24T13:28:29.477Z,98802.05
2018-03-24T13:30:56.098Z,98811.39
2018-03-24T13:33:22.466Z,98816.03
2018-03-24T13:35:48.820Z,98811.50
2018-03-24T13:38:15.233Z,98815.67
2018-03-24T13:40:41.686Z,98824.90
2018-03-24T13:43:08.034Z,98834.64
2018-03-24T13:45:34.386Z,98838.86
2018-03-24T13:48:00.831Z,98834.23
2018-03-24T13:50:27.330Z,98837.08
2018-03-24T13:52:53.666Z,98836.92
2018-03-24T13:55:20.028Z,98841.85
2018-03-24T13:57:46.386Z,98843.42
2018-03-24T14:00:12.791Z,98846.67
2018-03-24T14:02:39.138Z,98851.88
2018-03-24T14:05:05.554Z,98856.23
2018-03-24T14:07:31.891Z,98853.06
2018-03-24T14:09:58.236Z,98856.11
2018-03-24T14:12:24.618Z,98855.28
2018-03-24T14:14:51.019Z,98855.02
2018-03-24T14:17:17.430Z,98862.77
2018-03-24T14:19:43.835Z,98862.42
2018-03-24T14:22:10.230Z,98867.97
2018-03-24T14:24:36.624Z,98871.54
2018-03-24T14:27:03.035Z,98876.58
2018-03-24T14:29:29.365Z,98887.92
2018-03-24T14:31:55.877Z,98888.35
2018-03-24T14:34:22.234Z,98890.95
2018-03-24T14:36:48.623Z,98891.41
2018-03-24T14:39:14.998Z,98903.36
2018-03-24T14:41:41.405Z,98895.47
2018-03-24T14:44:07.846Z,98894.63
2018-03-24T14:46:34.253Z,98892.89
2018-03-24T14:49:00.592Z,98898.73
2018-03-24T14:51:27.266Z,98901.13
2018-03-24T14:53:53.663Z,98911.37
2018-03-24T14:56:20.235Z,98910.52
2018-03-24T14:58:46.722Z,98913.69
2018-03-24T15:01:13.134Z,98913.64
2018-03-24T15:03:39.491Z,98910.16
2018-03-24T15:06:05.859Z,98916.86
2018-03-24T15:08:32.205Z,98925.27
2018-03-24T15:10:58.565Z,98936.28
2018-03-24T15:13:25.014Z,98940.95
2018-03-24T15:15:51.551Z,98938.56
2018-03-24T15:18:17.905Z,98948.14
2018-03-24T15:20:44.254Z,98956.69
2018-03-24T15:23:11.088Z,98966.38
2018-03-24T15:25:37.581Z,98974.81
2018-03-24T15:28:03.969Z,98975.52
2018-03-24T15:43:54.045Z,99012.19
2018-03-24T15:46:20.386Z,99020.88
2018-03-24T15:48:46.726Z,99024.66
2018-03-24T15:51:13.101Z,99028.92
2018-03-24T15:53:39.482Z,99036.97
2018-03-24T15:56:05.938Z,99050.69
2018-03-24T15:58:32.322Z,99050.38
2018-03-24T16:00:58.662Z,99048.81
2018-03-24T16:03:25.058Z,99054.52
2018-03-24T16:05:51.426Z,99061.91
2018-03-24T16:08:17.794Z,99062.78
2018-03-24T16:10:44.254Z,99069.50
2018-03-24T16:13:10.605Z,99072.45
2018-03-24T16:15:36.973Z,99077.86
2018-03-24T16:18:03.432Z,99077.55
2018-03-24T16:20:29.782Z,99077.88
2018-03-24T16:22:56.133Z,99080.97
2018-03-24T16:25:22.535Z,99085.52
2018-03-24T16:27:48.897Z,99085.69
2018-03-24T16:30:15.335Z,99082.99
2018-03-24T16:32:41.891Z,99086.72
2018-03-24T16:35:08.215Z,99085.92
2018-03-24T16:37:34.586Z,99085.55
2018-03-24T16:40:00.922Z,99086.00
2018-03-24T16:42:27.501Z,99095.13
2018-03-24T16:44:53.956Z,99101.89
2018-03-24T16:47:20.311Z,99105.10
2018-03-24T16:49:46.654Z,99109.10
2018-03-24T16:52:13.028Z,99115.98
2018-03-24T16:54:39.383Z,99119.98
2018-03-24T16:57:05.747Z,99124.08
2018-03-24T16:59:32.138Z,99123.63
2018-03-24T17:01:58.508Z,99134.56
2018-03-24T17:04:24.886Z,99136.23
2018-03-24T17:06:51.295Z,99138.83
2018-03-24T17:09:17.699Z,99131.98
2018-03-24T17:11:44.105Z,99126.59
2018-03-24T17:14:10.415Z,99130.82
2018-03-24T17:16:36.810Z,99161.43
2018-03-24T17:19:03.186Z,99176.97
2018-03-24T17:21:29.531Z,99177.16
2018-03-24T17:23:55.893Z,99169.41
2018-03-24T17:26:22.258Z,99165.66
2018-03-24T17:28:48.677Z,99165.78
2018-03-24T17:31:15.183Z,99173.93
2018-03-24T17:33:41.733Z,99181.39
2018-03-24T17:36:08.150Z,99180.00
2018-03-24T17:38:34.494Z,99188.57
2018-03-24T17:41:00.855Z,99183.91
2018-03-24T17:43:27.246Z,99186.59
2018-03-24T17:45:53.636Z,99189.02
2018-03-24T17:48:20.005Z,99186.49
2018-03-24T17:50:46.566Z,99193.53
2018-03-24T17:53:12.934Z,99193.45
2018-03-24T17:55:39.325Z,99193.52
2018-03-24T17:58:05.698Z,99203.50
2018-03-24T18:00:32.068Z,99195.01
2018-03-24T18:02:58.402Z,99195.59
2018-03-24T18:05:24.770Z,99195.20
2018-03-24T18:07:51.126Z,99196.14
2018-03-24T18:10:17.518Z,99209.73
2018-03-24T18:12:43.849Z,99207.71
2018-03-24T18:15:10.192Z,99219.88
2018-03-24T18:17:36.677Z,99220.36
2018-03-24T18:20:03.065Z,99223.92
2018-03-24T18:22:29.417Z,99229.28
2018-03-24T18:24:55.749Z,99234.03
2018-03-24T18:27:22.101Z,99239.79
2018-03-24T18:29:48.473Z,99238.20
2018-03-24T18:32:14.868Z,99241.66
2018-03-24T18:34:41.237Z,99237.36
2018-03-24T18:37:07.688Z,99232.83
2018-03-24T18:39:34.038Z,99240.06
2018-03-24T18:42:00.434Z,99246.95
2018-03-24T18:44:26.774Z,99249.81
2018-03-24T18:46:53.180Z,99250.17
2018-03-24T18:49:19.534Z,99255.89
2018-03-24T18:51:45.876Z,99256.34
2018-03-24T18:54:12.234Z,99262.04
2018-03-24T18:56:38.618Z,99266.34
2018-03-24T18:59:04.970Z,99264.30
2018-03-24T19:01:31.634Z,99272.20
2018-03-24T19:03:57.998Z,99279.75
2018-03-24T19:06:24.329Z,99288.31
2018-03-24T19:08:50.685Z,99283.81
2018-03-24T19:11:17.009Z,99290.58
2018-03-24T19:13:43.350Z,99286.19
2018-03-24T19:16:09.708Z,99283.96
2018-03-24T19:18:36.357Z,99283.59
2018-03-24T19:21:02.760Z,99276.50
2018-03-24T19:23:29.114Z,99283.83
2018-03-24T19:25:55.507Z,99289.30
2018-03-24T19:28:21.834Z,99291.31
2018-03-24T19:30:48.219Z,99299.22
2018-03-24T19:33:14.580Z,99299.78
2018-03-24T19:35:41.083Z,99297.32
2018-03-24T19:38:07.439Z,99313.07
2018-03-24T19:40:33.778Z,99309.67
2018-03-24T19:43:00.191Z,99315.45
2018-03-24T19:45:26.494Z,99315.64
2018-03-24T19:47:52.862Z,99312.38
2018-03-24T19:50:19.354Z,99313.64
2018-03-24T19:52:45.709Z,99313.81
2018-03-24T19:55:12.049Z,99316.16
2018-03-24T19:57:38.462Z,99325.71
2018-03-24T20:00:04.822Z,99321.88
2018-03-24T20:02:31.167Z,99324.42
2018-03-24T20:04:57.530Z,99332.02
2018-03-24T20:07:24.099Z,99327.17
2018-03-24T20:09:50.442Z,99340.91
2018-03-24T20:12:16.773Z,99332.43
2018-03-24T20:14:43.117Z,99324.25
2018-03-24T20:17:09.505Z,99330.70
2018-03-24T20:19:35.983Z,99331.73
2018-03-24T20:22:02.355Z,99327.13
2018-03-24T20:24:28.702Z,99327.25
2018-03-24T20:26:55.114Z,99328.25
2018-03-24T20:29:21.453Z,99334.05
2018-03-24T20:31:47.806Z,99331.87
2018-03-24T20:34:14.184Z,99336.86
2018-03-24T20:36:40.550Z,99332.17
2018-03-24T20:39:06.940Z,99334.45
2018-03-24T20:41:33.288Z,99332.89
2018-03-24T20:43:59.633Z,99343.58
2018-03-24T20:46:25.990Z,99339.98
2018-03-24T20:48:52.341Z,99342.95
2018-03-24T20:51:18.708Z,99339.61
2018-03-24T20:53:45.066Z,99348.16
2018-03-24T20:56:11.394Z,99339.59
2018-03-24T20:58:37.745Z,99349.70
2018-03-24T21:01:04.114Z,99347.00
2018-03-24T21:03:30.449Z,99345.61
2018-03-24T21:05:56.788Z,99339.71
2018-03-24T21:08:23.150Z,99342.92
2018-03-24T21:10:49.486Z,99348.66
2018-03-24T21:13:15.877Z,99349.95
2018-03-24T21:15:42.186Z,99342.07
2018-03-24T21:18:08.549Z,99344.69
2018-03-24T21:20:34.913Z,99343.42
2018-03-24T21:23:01.254Z,99347.77
2018-03-24T21:25:27.610Z,99349.00
2018-03-24T21:27:54.086Z,99355.13
2018-03-24T21:30:20.426Z,99348.80
2018-03-24T21:32:46.814Z,99346.21
2018-03-24T21:35:13.161Z,99357.64
2018-03-24T21:37:39.515Z,99357.98
2018-03-24T21:40:05.878Z,99360.81
2018-03-24T21:42:32.208Z,99358.74
2018-03-24T21:44:58.547Z,99366.03
2018-03-24T21:47:24.916Z,99359.89
2018-03-24T21:49:51.248Z,99358.59
2018-03-24T21:52:18.011Z,99360.73
2018-03-24T21:54:44.358Z,99354.87
2018-03-24T21:57:10.691Z,99362.77
2018-03-24T21:59:37.039Z,99363.13
2018-03-24T22:02:03.422Z,99360.65
2018-03-24T22:04:29.806Z,99363.72
2018-03-24T22:06:56.154Z,99373.11
2018-03-24T22:09:22.485Z,99365.79
2018-03-24T22:11:48.839Z,99362.85
2018-03-24T22:14:15.182Z,99361.30
2018-03-24T22:16:41.534Z,99362.14
2018-03-24T22:19:07.914Z,99365.05
2018-03-24T22:21:34.337Z,99371.17
2018-03-24T22:24:00.674Z,99376.83
2018-03-24T22:26:27.010Z,99375.75
2018-03-24T22:28:53.344Z,99385.06
2018-03-24T22:31:19.706Z,99391.63
2018-03-24T22:33:46.058Z,99397.05
2018-03-24T22:36:12.478Z,99397.63
2018-03-24T22:38:38.826Z,99402.78
2018-03-24T22:41:05.225Z,99397.98
2018-03-24T22:43:31.755Z,99406.58
2018-03-24T22:45:58.113Z,99407.92
2018-03-24T22:48:24.458Z,99406.72
2018-03-24T22:50:50.784Z,99408.36
2018-03-24T22:53:17.305Z,99408.95
2018-03-24T22:55:43.654Z,99404.68
2018-03-24T22:58:10.151Z,99413.27
2018-03-24T23:00:36.641Z,99412.89
2018-03-24T23:03:03.022Z,99418.86
2018-03-24T23:05:29.552Z,99422.69
2018-03-24T23:07:55.900Z,99423.17
2018-03-24T23:10:22.241Z,99424.75
2018-03-24T23:12:48.593Z,99435.55
2018-03-24T23:15:14.930Z,99434.89
2018-03-24T23:17:41.594Z,99438.41
2018-03-24T23:20:07.958Z,99436.09
2018-03-24T23:22:34.365Z,99438.88
2018-03-24T23:25:00.749Z,99438.27
2018-03-24T23:27:27.084Z,99438.28
2018-03-24T23:29:53.611Z,99432.55
2018-03-24T23:32:19.961Z,99438.04
2018-03-24T23:34:46.318Z,99429.99
2018-03-24T23:37:12.661Z,99443.79
2018-03-24T23:39:39.025Z,99445.40
2018-03-24T23:42:05.414Z,99446.15
2018-03-24T23:44:31.789Z,99453.06
2018-03-24T23:46:58.129Z,99456.77
2018-03-24T23:49:24.465Z,99450.70
2018-03-24T23:51:50.793Z,99447.95
2018-03-24T23:54:17.131Z,99441.70
2018-03-24T23:56:43.453Z,99423.81
2018-03-24T23:59:09.806Z,99424.34
